Terminal Aerodrome Forecast
Issued by NWS

Home | Current Version | Previous Version | Text Only | Print | Product List | Glossary On
Versions: 1 2 3 4 5 6 7 8 9 10 11 12 13 14 15 16 17 18 19 20
000
FTUS46 KMTR 011304 AAA
TAFSNS
TAF AMD
KSNS 011304Z 0113/0212 29004KT P6SM OVC005
     FM011700 29005KT P6SM SCT007
     FM011900 29012KT P6SM FEW012
     FM020300 29009KT P6SM SCT009
     FM020500 29006KT P6SM OVC007=

USA.gov is the U.S. government's official web portal to all federal, state and local government web resources and services.